This is the latest recevied weather packets stored in our database for station/object JA0BES-13. If no packets are shown the sender has not sent any weather packets the latest 1 day(s).
| Time | Temp. | Humidity | Pressure | Rain* | Wind** | Luminosity | Snow |
|---|---|---|---|---|---|---|---|
| 1836274707 | 24.44° C | 93% | 1009.3 hPa | 0 mm | 0.89 m/s, 235° | - | - |
| 1836274557 | 24.44° C | 95% | 1008.9 hPa | 0 mm | 0.45 m/s, 258° | - | - |
| 1836274107 | 25.56° C | 86% | 1009.4 hPa | 0 mm | 0 m/s | - | - |
| 1778031353 | 20.56° C | 60% | 1018.1 hPa | 0 mm | 0 m/s | - | - |
| 1778030752 | 20° C | 60% | 1017.8 hPa | 0 mm | 0 m/s | - | - |
| 1778030152 | 20° C | 60% | 1018.2 hPa | 0 mm | 1.34 m/s, 247° | - | - |
| 1778028951 | 18.89° C | 63% | 1018.2 hPa | 0 mm | 0 m/s | - | - |
| 1778028351 | 18.89° C | 63% | 1018.4 hPa | 0 mm | 0.89 m/s, 240° | - | - |
| 1778027750 | 18.33° C | 65% | 1018.5 hPa | 0 mm | 0 m/s | - | - |
| 1778026548 | 17.78° C | 64% | 1018.8 hPa | 0 mm | 0.89 m/s, 205° | - | - |
| 1778025947 | 17.22° C | 65% | 1018.9 hPa | 0 mm | 0.45 m/s, 180° | - | - |
| 1778025347 | 17.22° C | 66% | 1019 hPa | 0 mm | 0.89 m/s, 236° | - | - |
| 1778024746 | 16.67° C | 67% | 1018.9 hPa | 0 mm | 0.89 m/s, 234° | - | - |
| 1778024146 | 16.67° C | 69% | 1019.4 hPa | 0 mm | 0.89 m/s, 220° | - | - |
| 1778023546 | 15.56° C | 73% | 1019.2 hPa | 0 mm | 0.45 m/s, 191° | - | - |
| 1778022946 | 15° C | 76% | 1019.3 hPa | 0 mm | 0.89 m/s, 222° | - | - |
| 1778022345 | 14.44° C | 77% | 1019.5 hPa | 0 mm | 0.45 m/s, 202° | - | - |
| 1778021745 | 13.89° C | 79% | 1019.6 hPa | 0 mm | 0.89 m/s, 234° | - | - |
| 1778021144 | 13.33° C | 80% | 1019.6 hPa | 0 mm | 0.45 m/s, 220° | - | - |
| 1778020544 | 13.33° C | 81% | 1019.7 hPa | 0 mm | 0.45 m/s, 198° | - | - |
| 1778019944 | 12.78° C | 81% | 1019.7 hPa | 0 mm | 0.89 m/s, 238° | - | - |
| 1778019344 | 12.78° C | 81% | 1019.8 hPa | 0 mm | 0 m/s | - | - |
| 1778018743 | 12.78° C | 81% | 1020.1 hPa | 0 mm | 0.45 m/s, 211° | - | - |
| 1778018143 | 12.78° C | 79% | 1020.1 hPa | 0 mm | 0.89 m/s, 243° | - | - |
| 1778017542 | 13.33° C | 81% | 1020 hPa | 0 mm | 0.45 m/s, 234° | - | - |
* Rain since midnight (hover to see other rain measurements)
** Current wind speed in m/s (hover to see current wind gust speed)